Time;durP1;ratioP1;P1;durP2;ratioP2;P2;SDS_P1;SDS_P2;PMS_P1;PMS_P2;Temp;Humidity;BMP_temperature;BMP_pressure;BME280_temperature;BME280_humidity;BME280_pressure;Samples;Min_cycle;Max_cycle;Signal;HPM_P1;HPM_P2
2020/12/27 00:02:11;;;;;;;6.50;0.25;;;8.70;83.30;;;;;;4999911;28;20061;-83
2020/12/27 00:04:40;;;;;;;0.00;0.00;;;8.70;83.30;;;;;;4976548;28;20027;-85
2020/12/27 00:07:07;;;;;;;0.00;0.00;;;8.70;83.40;;;;;;4990318;28;20041;-85
2020/12/27 00:09:43;;;;;;;0.10;0.10;;;8.70;83.40;;;;;;4986492;28;20026;-83
2020/12/27 00:12:13;;;;;;;4.10;0.28;;;8.70;83.50;;;;;;4984520;28;20042;-87
2020/12/27 00:14:39;;;;;;;0.00;0.00;;;8.70;83.40;;;;;;4989746;28;20038;-83
2020/12/27 00:17:06;;;;;;;0.00;0.00;;;8.70;83.60;;;;;;4994795;28;20334;-83
2020/12/27 00:19:33;;;;;;;0.00;0.00;;;8.60;83.60;;;;;;4995044;28;20019;-83
2020/12/27 00:21:59;;;;;;;0.95;0.10;;;8.60;83.60;;;;;;4977791;28;20038;-83
2020/12/27 00:24:25;;;;;;;0.00;0.00;;;8.60;83.70;;;;;;4984524;28;20022;-83
2020/12/27 00:26:52;;;;;;;0.20;0.00;;;8.60;83.70;;;;;;4993967;28;20440;-85
2020/12/27 00:29:18;;;;;;;3.50;0.10;;;8.60;83.80;;;;;;4984266;28;20026;-83
2020/12/27 00:31:47;;;;;;;0.00;0.00;;;8.60;83.80;;;;;;4975290;28;20358;-86
2020/12/27 00:34:13;;;;;;;0.00;0.00;;;8.60;83.90;;;;;;4985021;28;20022;-83
2020/12/27 00:36:40;;;;;;;0.45;0.40;;;8.60;83.90;;;;;;4995965;28;20034;-83
2020/12/27 00:39:06;;;;;;;0.00;0.00;;;8.60;83.90;;;;;;4996464;28;20022;-83
2020/12/27 00:41:33;;;;;;;0.20;0.00;;;8.60;83.90;;;;;;4993800;28;20710;-84
2020/12/27 00:44:00;;;;;;;8.50;0.13;;;8.60;84.00;;;;;;4995312;28;20046;-83
2020/12/27 00:46:26;;;;;;;0.00;0.00;;;8.70;84.00;;;;;;4983197;28;20034;-84
2020/12/27 00:48:53;;;;;;;0.00;0.00;;;8.70;84.00;;;;;;4996943;28;20457;-84
2020/12/27 00:51:20;;;;;;;0.15;0.10;;;8.70;84.00;;;;;;4973412;28;20038;-84
2020/12/27 00:53:47;;;;;;;0.00;0.00;;;8.70;84.00;;;;;;4984398;28;20037;-83
2020/12/27 00:56:13;;;;;;;0.00;0.00;;;8.70;84.00;;;;;;4990758;28;20037;-84
2020/12/27 00:58:40;;;;;;;0.00;0.00;;;8.70;84.00;;;;;;4996552;28;20037;-86
2020/12/27 01:01:07;;;;;;;0.00;0.00;;;8.70;84.10;;;;;;4984329;28;20038;-85
2020/12/27 01:03:33;;;;;;;0.00;0.00;;;8.70;84.10;;;;;;4982703;28;20015;-85
2020/12/27 01:05:59;;;;;;;0.60;0.30;;;8.70;84.20;;;;;;4981585;28;20026;-83
2020/12/27 01:08:29;;;;;;;0.00;0.00;;;8.70;84.20;;;;;;4990480;28;20023;-83
2020/12/27 01:10:55;;;;;;;0.30;0.17;;;8.70;84.20;;;;;;4988903;28;20026;-84
2020/12/27 01:13:22;;;;;;;0.00;0.00;;;8.70;84.20;;;;;;4960881;28;20038;-83
2020/12/27 01:15:48;;;;;;;0.00;0.00;;;8.70;84.30;;;;;;4993522;28;20039;-85
2020/12/27 01:18:14;;;;;;;0.00;0.00;;;8.70;84.30;;;;;;4988475;28;20031;-83
2020/12/27 01:20:40;;;;;;;0.00;0.00;;;8.70;84.30;;;;;;4984025;28;20037;-84
2020/12/27 01:23:07;;;;;;;0.00;0.00;;;8.70;84.40;;;;;;4993262;28;20421;-84
2020/12/27 01:25:33;;;;;;;0.00;0.00;;;8.70;84.50;;;;;;4977772;28;20029;-84
2020/12/27 01:28:00;;;;;;;0.00;0.00;;;8.70;84.50;;;;;;4993219;28;20051;-84
2020/12/27 01:30:26;;;;;;;14.63;0.17;;;8.70;84.60;;;;;;4992304;28;20046;-86
2020/12/27 01:32:53;;;;;;;0.00;0.00;;;8.70;84.60;;;;;;4993078;28;20321;-89
2020/12/27 01:35:19;;;;;;;0.00;0.00;;;8.70;84.60;;;;;;4978620;28;20037;-83
2020/12/27 01:37:45;;;;;;;0.68;0.17;;;8.70;84.60;;;;;;4984177;28;20039;-85
2020/12/27 01:40:12;;;;;;;0.00;0.00;;;8.70;84.60;;;;;;4987503;28;20027;-84
2020/12/27 01:42:38;;;;;;;0.00;0.00;;;8.70;84.60;;;;;;4977792;28;20022;-85
2020/12/27 01:45:04;;;;;;;0.00;0.00;;;8.70;84.50;;;;;;4975478;28;20034;-91
2020/12/27 01:47:34;;;;;;;0.00;0.00;;;8.70;84.50;;;;;;4966761;28;20049;-84
2020/12/27 01:50:01;;;;;;;1.20;0.80;;;8.80;84.50;;;;;;4991482;28;20319;-84
2020/12/27 01:52:28;;;;;;;0.10;0.00;;;8.80;84.50;;;;;;4962866;28;20431;-89
2020/12/27 01:54:54;;;;;;;0.30;0.00;;;8.80;84.50;;;;;;4987535;28;20029;-85
2020/12/27 01:57:22;;;;;;;0.00;0.00;;;8.80;84.50;;;;;;4979466;28;20027;-85
2020/12/27 01:59:50;;;;;;;0.00;0.00;;;8.80;84.50;;;;;;4991097;28;20022;-87
2020/12/27 02:02:16;;;;;;;0.00;0.00;;;8.80;84.50;;;;;;4990994;28;20030;-84
2020/12/27 02:04:42;;;;;;;0.00;0.00;;;8.80;84.50;;;;;;4974335;28;20106;-86
2020/12/27 02:07:12;;;;;;;0.00;0.00;;;8.80;84.40;;;;;;4988632;28;20448;-85
2020/12/27 02:09:39;;;;;;;0.08;0.00;;;8.80;84.40;;;;;;4974819;28;20031;-86
2020/12/27 02:12:06;;;;;;;0.00;0.00;;;8.90;84.40;;;;;;4991111;28;20026;-86
2020/12/27 02:14:33;;;;;;;0.10;0.00;;;8.90;84.30;;;;;;4993527;28;20022;-85
2020/12/27 02:17:00;;;;;;;0.00;0.00;;;8.90;84.30;;;;;;4987858;28;20042;-84
2020/12/27 02:19:26;;;;;;;0.00;0.00;;;8.90;84.40;;;;;;4958462;28;20038;-83
2020/12/27 02:21:53;;;;;;;0.00;0.00;;;8.90;84.40;;;;;;4989932;28;20310;-84
2020/12/27 02:24:19;;;;;;;0.05;0.00;;;8.90;84.40;;;;;;4973026;28;20050;-85
2020/12/27 02:27:06;;;;;;;0.00;0.00;;;8.90;84.50;;;;;;4993718;28;20339;-85
2020/12/27 02:29:36;;;;;;;0.00;0.00;;;8.90;84.60;;;;;;5007585;28;20034;-85
2020/12/27 02:32:02;;;;;;;0.00;0.00;;;8.90;84.70;;;;;;4969025;28;20051;-84
2020/12/27 02:34:29;;;;;;;0.00;0.00;;;8.90;84.70;;;;;;4979797;28;20429;-85
2020/12/27 02:36:55;;;;;;;0.00;0.00;;;8.90;84.80;;;;;;4988279;28;20437;-86
2020/12/27 02:39:22;;;;;;;0.00;0.00;;;8.90;84.80;;;;;;4981319;28;20046;-85
2020/12/27 02:41:52;;;;;;;0.00;0.00;;;8.90;84.80;;;;;;4991293;28;20039;-87
2020/12/27 02:44:18;;;;;;;0.05;0.00;;;8.90;84.80;;;;;;4990923;28;20019;-84
2020/12/27 02:46:45;;;;;;;12.45;0.22;;;8.90;84.80;;;;;;4984137;28;20042;-85
2020/12/27 02:49:12;;;;;;;1.75;0.10;;;8.90;84.80;;;;;;4992075;28;20031;-85
2020/12/27 02:51:38;;;;;;;0.00;0.00;;;8.90;84.80;;;;;;4975996;28;20035;-85
2020/12/27 02:54:04;;;;;;;0.35;0.10;;;8.90;84.80;;;;;;4990828;28;20031;-84
2020/12/27 02:56:31;;;;;;;0.00;0.00;;;8.90;84.80;;;;;;4992961;28;20022;-83
2020/12/27 02:59:02;;;;;;;0.00;0.00;;;8.90;84.80;;;;;;4992366;28;20029;-87
2020/12/27 03:01:28;;;;;;;0.08;0.00;;;8.90;84.80;;;;;;4991921;28;20027;-84
2020/12/27 03:03:54;;;;;;;0.00;0.00;;;9.00;84.80;;;;;;4987086;28;20046;-84
2020/12/27 03:06:21;;;;;;;0.00;0.00;;;9.00;84.90;;;;;;4985128;28;20023;-84
2020/12/27 03:08:56;;;;;;;0.30;0.00;;;9.00;84.90;;;;;;4988432;28;20050;-85
2020/12/27 03:11:23;;;;;;;0.00;0.00;;;9.00;84.80;;;;;;4985845;28;20030;-86
2020/12/27 03:13:50;;;;;;;0.00;0.00;;;9.00;84.80;;;;;;4982570;28;20437;-84
2020/12/27 03:16:16;;;;;;;0.00;0.00;;;9.00;84.80;;;;;;4976503;28;20054;-84
2020/12/27 03:18:43;;;;;;;0.00;0.00;;;9.00;84.80;;;;;;4978072;28;20038;-86
2020/12/27 03:21:09;;;;;;;0.00;0.00;;;9.00;84.80;;;;;;4977020;28;20026;-84
2020/12/27 03:23:35;;;;;;;0.00;0.00;;;9.00;84.90;;;;;;4985923;28;20552;-84
2020/12/27 03:26:02;;;;;;;0.00;0.00;;;9.00;84.90;;;;;;4980536;28;20031;-86
2020/12/27 03:28:28;;;;;;;0.00;0.00;;;9.00;85.10;;;;;;4989556;28;20042;-85
2020/12/27 03:30:55;;;;;;;0.00;0.00;;;9.00;85.20;;;;;;4996577;28;20046;-85
2020/12/27 03:33:21;;;;;;;0.00;0.00;;;9.00;85.30;;;;;;4994403;28;20049;-87
2020/12/27 03:35:47;;;;;;;0.00;0.00;;;9.00;85.30;;;;;;4990826;28;20030;-84
2020/12/27 03:38:14;;;;;;;0.00;0.00;;;8.90;85.30;;;;;;4979187;28;20042;-84
2020/12/27 03:40:40;;;;;;;0.00;0.00;;;8.90;85.40;;;;;;4987718;28;20318;-84
2020/12/27 03:43:07;;;;;;;0.00;0.00;;;9.00;85.40;;;;;;4989528;28;20023;-84
2020/12/27 03:45:33;;;;;;;0.00;0.00;;;8.90;85.40;;;;;;4983571;28;20031;-84
2020/12/27 03:47:59;;;;;;;0.00;0.00;;;8.90;85.40;;;;;;4964834;28;20050;-87
2020/12/27 03:50:26;;;;;;;1.85;0.25;;;9.00;85.50;;;;;;4992532;28;20042;-84
2020/12/27 03:52:52;;;;;;;0.00;0.00;;;9.00;85.40;;;;;;4991661;28;20094;-84
2020/12/27 03:55:18;;;;;;;0.00;0.00;;;8.90;85.50;;;;;;4991295;28;20026;-83
2020/12/27 03:57:45;;;;;;;0.00;0.00;;;8.90;85.50;;;;;;5008441;28;20034;-84
2020/12/27 04:00:11;;;;;;;0.73;0.20;;;8.90;85.60;;;;;;4995250;28;20413;-87
2020/12/27 04:02:37;;;;;;;0.00;0.00;;;8.90;85.60;;;;;;4991350;28;20030;-85
2020/12/27 04:05:04;;;;;;;0.00;0.00;;;8.90;85.70;;;;;;4993606;28;20030;-87
2020/12/27 04:07:32;;;;;;;0.00;0.00;;;8.90;85.70;;;;;;4992385;28;20022;-85
2020/12/27 04:10:02;;;;;;;0.00;0.00;;;8.80;85.70;;;;;;4989296;28;20019;-84
2020/12/27 04:12:28;;;;;;;0.00;0.00;;;8.80;85.80;;;;;;4985300;28;20318;-84
2020/12/27 04:14:54;;;;;;;0.00;0.00;;;8.80;85.80;;;;;;4994332;28;20034;-84
2020/12/27 04:17:21;;;;;;;0.00;0.00;;;8.80;85.90;;;;;;4993724;28;20050;-83
2020/12/27 04:19:47;;;;;;;0.00;0.00;;;8.80;85.90;;;;;;4984706;28;20325;-84
2020/12/27 04:22:13;;;;;;;0.00;0.00;;;8.80;86.00;;;;;;4981658;28;20034;-84
2020/12/27 04:24:40;;;;;;;0.00;0.00;;;8.80;86.00;;;;;;4988064;28;20030;-84
2020/12/27 04:27:07;;;;;;;0.00;0.00;;;8.80;86.10;;;;;;4983312;28;20035;-84
2020/12/27 04:29:33;;;;;;;0.25;0.00;;;8.80;86.00;;;;;;4992706;28;20033;-84
2020/12/27 04:32:00;;;;;;;0.00;0.00;;;8.80;86.00;;;;;;4981526;28;20054;-85
2020/12/27 04:34:26;;;;;;;0.00;0.00;;;8.80;86.00;;;;;;4989387;28;20033;-84
2020/12/27 04:36:52;;;;;;;0.05;0.00;;;8.80;86.10;;;;;;5000024;28;20029;-85
2020/12/27 04:39:19;;;;;;;0.00;0.00;;;8.90;86.10;;;;;;4988714;28;20026;-84
2020/12/27 04:41:45;;;;;;;0.00;0.00;;;8.90;86.10;;;;;;4990532;28;20031;-84
2020/12/27 04:44:11;;;;;;;0.00;0.00;;;8.90;86.10;;;;;;4980650;28;20033;-84
2020/12/27 04:46:41;;;;;;;0.00;0.00;;;8.90;86.10;;;;;;4981958;28;20039;-84
2020/12/27 04:49:08;;;;;;;0.00;0.00;;;8.90;86.00;;;;;;4989692;28;20599;-90
2020/12/27 04:51:35;;;;;;;0.10;0.00;;;9.00;86.00;;;;;;4990753;28;20030;-85
2020/12/27 04:54:01;;;;;;;0.00;0.00;;;9.00;86.00;;;;;;4989020;28;20033;-83
2020/12/27 04:56:27;;;;;;;0.00;0.00;;;9.00;85.90;;;;;;4982174;28;20026;-87
2020/12/27 04:58:57;;;;;;;0.00;0.00;;;9.00;85.80;;;;;;4960483;28;20038;-92
2020/12/27 05:01:26;;;;;;;0.10;0.00;;;9.10;85.80;;;;;;4992173;28;20041;-83
2020/12/27 05:03:55;;;;;;;0.00;0.00;;;9.10;85.80;;;;;;4986335;28;20046;-84
2020/12/27 05:06:22;;;;;;;0.70;0.45;;;9.10;85.80;;;;;;4993563;28;20046;-83
2020/12/27 05:08:48;;;;;;;0.00;0.00;;;9.10;85.80;;;;;;4979831;28;20035;-83
2020/12/27 05:11:15;;;;;;;0.43;0.28;;;9.10;85.80;;;;;;4982179;28;20428;-83
2020/12/27 05:13:45;;;;;;;0.00;0.00;;;9.10;85.90;;;;;;4989886;28;20057;-84
2020/12/27 05:16:16;;;;;;;0.00;0.00;;;9.10;85.80;;;;;;4995246;28;20030;-83
2020/12/27 05:18:52;;;;;;;0.00;0.00;;;9.20;85.80;;;;;;4979059;28;20027;-84
2020/12/27 05:21:27;;;;;;;0.00;0.00;;;9.20;85.80;;;;;;4992790;28;20285;-83
2020/12/27 05:23:56;;;;;;;0.00;0.00;;;9.20;85.70;;;;;;4987523;28;20625;-92
2020/12/27 05:26:29;;;;;;;0.03;0.03;;;9.20;85.70;;;;;;4988119;28;20031;-83
2020/12/27 05:28:55;;;;;;;0.00;0.00;;;9.20;85.70;;;;;;4993286;28;20042;-83
2020/12/27 05:31:22;;;;;;;0.00;0.00;;;9.20;85.70;;;;;;4991838;28;20038;-89
2020/12/27 05:33:48;;;;;;;0.20;0.00;;;9.30;85.80;;;;;;4992000;28;20035;-84
2020/12/27 05:36:15;;;;;;;0.00;0.00;;;9.30;85.80;;;;;;4993863;28;20043;-83
2020/12/27 05:38:45;;;;;;;0.00;0.00;;;9.30;85.80;;;;;;4986934;28;20022;-88
2020/12/27 05:41:12;;;;;;;0.53;0.20;;;9.30;85.80;;;;;;4989493;28;20031;-90
2020/12/27 05:43:39;;;;;;;0.00;0.00;;;9.30;85.80;;;;;;4994437;28;20285;-83
2020/12/27 05:46:07;;;;;;;0.00;0.00;;;9.30;85.80;;;;;;4984003;28;20034;-91
2020/12/27 05:48:33;;;;;;;0.00;0.00;;;9.30;85.80;;;;;;4984088;28;20030;-83
2020/12/27 05:51:01;;;;;;;0.00;0.00;;;9.30;85.80;;;;;;4990133;28;20435;-83
2020/12/27 05:53:30;;;;;;;0.00;0.00;;;9.30;85.90;;;;;;4982059;28;20030;-83
2020/12/27 05:55:58;;;;;;;0.00;0.00;;;9.30;85.80;;;;;;4993283;28;20031;-82
2020/12/27 05:58:25;;;;;;;0.00;0.00;;;9.40;85.90;;;;;;4988740;28;20050;-89
2020/12/27 06:00:52;;;;;;;0.00;0.00;;;9.40;85.90;;;;;;4975483;28;20058;-83
2020/12/27 06:03:21;;;;;;;0.00;0.00;;;9.40;85.80;;;;;;4976070;28;20337;-83
2020/12/27 06:06:06;;;;;;;0.13;0.00;;;9.40;85.70;;;;;;4978826;28;20344;-82
2020/12/27 06:08:57;;;;;;;0.00;0.00;;;9.40;85.70;;;;;;4993024;28;20053;-88
2020/12/27 06:11:35;;;;;;;0.00;0.00;;;9.50;85.60;;;;;;4997864;28;20043;-88
2020/12/27 06:14:07;;;;;;;0.00;0.00;;;9.50;85.60;;;;;;4980984;28;20221;-83
2020/12/27 06:16:46;;;;;;;0.00;0.00;;;9.50;85.50;;;;;;4979836;28;20030;-90
2020/12/27 06:19:38;;;;;;;0.00;0.00;;;9.50;85.40;;;;;;4980127;28;20023;-83
2020/12/27 06:22:09;;;;;;;1.75;0.30;;;9.60;85.40;;;;;;4981910;28;20050;-88
2020/12/27 06:24:36;;;;;;;0.00;0.00;;;9.60;85.40;;;;;;4990496;28;20038;-85
2020/12/27 06:27:03;;;;;;;0.00;0.00;;;9.60;85.30;;;;;;4987271;28;20038;-85
2020/12/27 06:29:34;;;;;;;0.00;0.00;;;9.70;85.30;;;;;;5000977;28;20037;-85
2020/12/27 06:32:02;;;;;;;0.00;0.00;;;9.70;85.30;;;;;;4992620;28;20058;-83
2020/12/27 06:34:28;;;;;;;0.10;0.10;;;9.70;85.30;;;;;;4994110;28;20409;-83
2020/12/27 06:36:54;;;;;;;0.47;0.35;;;9.70;85.30;;;;;;4992832;28;20038;-83
2020/12/27 06:39:27;;;;;;;0.00;0.00;;;9.60;85.40;;;;;;4959135;28;20050;-84
2020/12/27 06:42:04;;;;;;;0.00;0.00;;;9.70;85.50;;;;;;4985582;28;20042;-84
2020/12/27 06:44:40;;;;;;;0.00;0.00;;;9.60;85.50;;;;;;4978919;28;20026;-86
2020/12/27 06:47:08;;;;;;;0.00;0.00;;;9.60;85.60;;;;;;4995004;28;20043;-83
2020/12/27 06:49:34;;;;;;;0.00;0.00;;;9.60;85.70;;;;;;4980062;28;20042;-82
2020/12/27 06:52:20;;;;;;;0.10;0.10;;;9.60;85.70;;;;;;5002370;28;20030;-83
2020/12/27 06:54:50;;;;;;;0.00;0.00;;;9.60;85.80;;;;;;4990923;28;20342;-84
2020/12/27 06:57:41;;;;;;;2.78;0.20;;;9.60;85.90;;;;;;4977965;28;20395;-87
2020/12/27 07:00:25;;;;;;;0.10;0.00;;;9.60;85.90;;;;;;4993558;28;20028;-90
2020/12/27 07:03:27;;;;;;;1.35;0.80;;;9.60;86.00;;;;;;4999842;28;20357;-84
2020/12/27 07:05:53;;;;;;;0.00;0.00;;;9.60;86.00;;;;;;4937833;29;20052;-83
2020/12/27 07:08:42;;;;;;;0.00;0.00;;;9.60;86.10;;;;;;4975077;28;20039;-85
2020/12/27 07:11:09;;;;;;;0.00;0.00;;;9.60;86.10;;;;;;4992329;28;20042;-84
2020/12/27 07:13:42;;;;;;;0.00;0.00;;;9.60;86.10;;;;;;4996830;28;20026;-85
2020/12/27 07:16:12;;;;;;;0.10;0.00;;;9.60;86.10;;;;;;4992441;28;20034;-84
2020/12/27 07:18:38;;;;;;;0.08;0.03;;;9.60;86.20;;;;;;4980652;28;20034;-84
2020/12/27 07:21:12;;;;;;;0.00;0.00;;;9.60;86.20;;;;;;4993628;28;20520;-86
2020/12/27 07:23:46;;;;;;;0.00;0.00;;;9.60;86.30;;;;;;5000730;28;20034;-90
2020/12/27 07:26:12;;;;;;;0.00;0.00;;;9.60;86.30;;;;;;4996386;28;20041;-86
2020/12/27 07:28:39;;;;;;;0.00;0.00;;;9.60;86.30;;;;;;4988538;28;20233;-90
2020/12/27 07:31:05;;;;;;;0.00;0.00;;;9.60;86.30;;;;;;4996482;28;20049;-86
2020/12/27 07:33:36;;;;;;;0.05;0.00;;;9.60;86.30;;;;;;4997373;28;20037;-84
2020/12/27 07:36:09;;;;;;;0.00;0.00;;;9.60;86.30;;;;;;4981810;28;20456;-88
2020/12/27 07:39:01;;;;;;;0.00;0.00;;;9.60;86.30;;;;;;4989847;28;20034;-87
2020/12/27 07:41:31;;;;;;;;;;;9.60;86.20;;;;;;4995912;28;20046;-84
2020/12/27 07:43:58;;;;;;;0.20;0.08;;;9.70;86.30;;;;;;4991409;28;20193;-89
2020/12/27 07:46:25;;;;;;;0.00;0.00;;;9.70;87.00;;;;;;4997757;28;20042;-84
2020/12/27 07:48:51;;;;;;;0.00;0.00;;;9.70;86.10;;;;;;4980617;28;20039;-87
2020/12/27 07:51:22;;;;;;;0.00;0.00;;;9.80;86.20;;;;;;4995056;28;20041;-86
2020/12/27 07:53:53;;;;;;;0.00;0.00;;;9.80;86.20;;;;;;4993558;28;20042;-88
2020/12/27 07:56:24;;;;;;;0.17;0.00;;;9.80;86.20;;;;;;4998492;28;20336;-89
2020/12/27 07:58:54;;;;;;;1.55;0.10;;;9.80;86.20;;;;;;4987726;28;20030;-88
2020/12/27 08:01:28;;;;;;;0.00;0.00;;;9.80;86.20;;;;;;4982459;28;20042;-89
2020/12/27 08:03:58;;;;;;;0.00;0.00;;;9.90;86.10;;;;;;4965356;28;20138;-88
2020/12/27 08:06:26;;;;;;;0.00;0.00;;;9.90;86.10;;;;;;5000219;28;20030;-89
2020/12/27 08:09:05;;;;;;;0.10;0.00;;;9.90;86.10;;;;;;4981708;28;20034;-87
2020/12/27 08:11:32;;;;;;;0.00;0.00;;;9.90;86.10;;;;;;5002801;28;20451;-88
2020/12/27 08:14:01;;;;;;;0.00;0.00;;;9.90;86.20;;;;;;4996880;28;20025;-87
2020/12/27 08:16:30;;;;;;;0.00;0.00;;;9.90;86.10;;;;;;4985706;28;20037;-89
2020/12/27 08:19:05;;;;;;;0.08;0.00;;;9.90;86.30;;;;;;5011065;28;20029;-90
2020/12/27 08:21:31;;;;;;;2.33;0.60;;;9.90;86.20;;;;;;5008614;28;20037;-86
2020/12/27 08:24:03;;;;;;;1.05;0.20;;;9.90;86.30;;;;;;4994419;28;20414;-92
2020/12/27 08:26:29;;;;;;;;;;;9.90;86.30;;;;;;5015082;28;20030;-85
2020/12/27 08:29:20;;;;;;;0.90;0.28;;;9.90;86.40;;;;;;5012537;28;20220;-85
2020/12/27 08:31:53;;;;;;;;;;;10.00;86.40;;;;;;4989544;28;20047;-85
2020/12/27 08:34:26;;;;;;;0.00;0.00;;;9.90;86.30;;;;;;4993910;28;19910;-88
2020/12/27 08:36:53;;;;;;;0.00;0.00;;;10.00;86.40;;;;;;4996542;28;20035;-84
2020/12/27 08:39:40;;;;;;;0.57;0.15;;;10.00;86.40;;;;;;4996407;28;20018;-87
2020/12/27 08:42:25;;;;;;;0.00;0.00;;;10.00;86.40;;;;;;4996833;28;20030;-85
2020/12/27 08:44:58;;;;;;;0.50;0.10;;;10.00;86.30;;;;;;4990050;28;20034;-85
2020/12/27 08:47:45;;;;;;;0.00;0.00;;;10.10;86.30;;;;;;4994758;28;20030;-85
2020/12/27 08:50:25;;;;;;;0.00;0.00;;;10.10;86.30;;;;;;4990927;28;20033;-87
2020/12/27 08:52:53;;;;;;;0.13;0.00;;;10.10;86.40;;;;;;4996475;28;20049;-85
2020/12/27 08:55:27;;;;;;;0.38;0.15;;;10.20;86.30;;;;;;4995718;28;20425;-83
2020/12/27 08:57:54;;;;;;;0.40;0.20;;;10.20;86.10;;;;;;4993562;28;20038;-86
2020/12/27 09:00:21;;;;;;;0.00;0.00;;;10.20;86.20;;;;;;4992969;28;20034;-86
2020/12/27 09:02:59;;;;;;;0.00;0.00;;;10.20;86.30;;;;;;4958954;28;20046;-87
2020/12/27 09:05:26;;;;;;;0.00;0.00;;;10.20;86.30;;;;;;4991980;28;20034;-88
2020/12/27 09:07:53;;;;;;;0.00;0.00;;;10.20;86.30;;;;;;4979075;28;20045;-89
2020/12/27 09:10:29;;;;;;;0.20;0.10;;;10.20;86.40;;;;;;4979955;28;20040;-87
2020/12/27 09:13:06;;;;;;;0.30;0.28;;;10.20;86.50;;;;;;4976437;28;20031;-87
2020/12/27 09:15:33;;;;;;;0.03;0.00;;;10.20;86.50;;;;;;4991476;28;20030;-86
2020/12/27 09:18:00;;;;;;;0.82;0.10;;;10.10;86.50;;;;;;4995382;28;20037;-87
2020/12/27 09:20:27;;;;;;;0.00;0.00;;;10.20;86.60;;;;;;4996813;28;20026;-86
2020/12/27 09:22:54;;;;;;;0.00;0.00;;;10.20;86.60;;;;;;4993254;28;20022;-88
2020/12/27 09:25:21;;;;;;;0.00;0.00;;;10.20;86.60;;;;;;4982113;28;20030;-82
2020/12/27 09:27:48;;;;;;;0.00;0.00;;;10.20;86.60;;;;;;5002341;28;20062;-82
2020/12/27 09:30:24;;;;;;;0.03;0.03;;;10.20;86.60;;;;;;5000911;28;20034;-84
2020/12/27 09:33:00;;;;;;;0.13;0.03;;;10.20;86.60;;;;;;5009983;28;20057;-88
2020/12/27 09:35:26;;;;;;;0.00;0.00;;;10.20;86.60;;;;;;4999941;28;20030;-84
2020/12/27 09:37:53;;;;;;;0.00;0.00;;;10.30;86.60;;;;;;5016352;28;20027;-89
2020/12/27 09:40:20;;;;;;;0.00;0.00;;;10.30;86.60;;;;;;5015738;28;20014;-87
2020/12/27 09:42:46;;;;;;;0.00;0.00;;;10.30;86.50;;;;;;4996092;28;20022;-88
2020/12/27 09:45:20;;;;;;;0.00;0.00;;;10.30;86.50;;;;;;4988799;28;20438;-85
2020/12/27 09:48:03;;;;;;;0.47;0.05;;;10.30;86.50;;;;;;4969880;28;20460;-86
2020/12/27 09:50:35;;;;;;;0.00;0.00;;;10.40;86.50;;;;;;4958372;28;20049;-85
2020/12/27 09:53:05;;;;;;;0.00;0.00;;;10.30;86.40;;;;;;4994740;28;20030;-86
2020/12/27 09:55:32;;;;;;;0.00;0.00;;;10.40;86.50;;;;;;5001701;28;20030;-86
2020/12/27 09:57:58;;;;;;;0.38;0.10;;;10.40;86.50;;;;;;4985877;28;20046;-85
2020/12/27 10:00:24;;;;;;;2.97;0.50;;;10.40;86.50;;;;;;4986570;28;20042;-85
2020/12/27 10:02:51;;;;;;;0.63;0.35;;;10.40;86.50;;;;;;5009215;28;20038;-88
2020/12/27 10:05:17;;;;;;;4.80;0.25;;;10.40;87.20;;;;;;4977490;28;20040;-86
2020/12/27 10:07:44;;;;;;;0.00;0.00;;;10.40;86.40;;;;;;4994308;28;20042;-85
2020/12/27 10:10:11;;;;;;;0.00;0.00;;;10.40;86.40;;;;;;4990906;28;20417;-86
2020/12/27 10:12:38;;;;;;;1.92;0.00;;;10.40;86.40;;;;;;4977268;28;20520;-86
2020/12/27 10:15:06;;;;;;;4.90;0.10;;;10.40;86.40;;;;;;4984147;28;20119;-87
2020/12/27 10:17:33;;;;;;;0.00;0.00;;;10.40;86.40;;;;;;4972115;28;20022;-86
2020/12/27 10:20:00;;;;;;;0.43;0.20;;;10.40;86.50;;;;;;5009149;28;20042;-86
2020/12/27 10:22:27;;;;;;;0.00;0.00;;;10.40;86.60;;;;;;4993759;28;20042;-87
2020/12/27 10:24:54;;;;;;;0.00;0.00;;;10.40;86.70;;;;;;4991713;28;20402;-86
2020/12/27 10:27:20;;;;;;;2.22;0.15;;;10.40;86.70;;;;;;4985700;28;20038;-85
2020/12/27 10:29:46;;;;;;;0.00;0.00;;;10.40;86.80;;;;;;4987972;28;20033;-86
2020/12/27 10:32:13;;;;;;;3.10;0.10;;;10.40;86.80;;;;;;4976332;28;20039;-86
2020/12/27 10:34:39;;;;;;;0.00;0.00;;;10.40;86.80;;;;;;4977080;28;20317;-85
2020/12/27 10:37:06;;;;;;;0.00;0.00;;;10.40;86.90;;;;;;4985041;28;20039;-84
2020/12/27 10:39:32;;;;;;;0.00;0.00;;;10.40;87.00;;;;;;4988355;28;20026;-85
2020/12/27 10:41:59;;;;;;;1.38;0.25;;;10.40;87.00;;;;;;4992754;28;20041;-86
2020/12/27 10:44:26;;;;;;;0.28;0.03;;;10.40;87.00;;;;;;4976915;28;20042;-87
2020/12/27 10:46:52;;;;;;;0.73;0.00;;;10.40;87.00;;;;;;4968449;28;20039;-85
2020/12/27 10:49:20;;;;;;;0.60;0.28;;;10.40;86.90;;;;;;4987970;28;20037;-84
2020/12/27 10:51:46;;;;;;;1.00;0.20;;;10.40;86.90;;;;;;4992544;28;20054;-80
2020/12/27 10:54:12;;;;;;;4.85;0.45;;;10.40;86.90;;;;;;4993459;28;20030;-84
2020/12/27 10:56:41;;;;;;;0.35;0.30;;;10.40;86.80;;;;;;4993777;28;20421;-85
2020/12/27 10:59:07;;;;;;;0.10;0.00;;;10.40;86.70;;;;;;4992353;28;20049;-85
2020/12/27 11:01:33;;;;;;;2.47;1.38;;;10.50;86.90;;;;;;4992093;28;20041;-85
2020/12/27 11:04:00;;;;;;;0.32;0.05;;;10.60;86.70;;;;;;4984286;28;20031;-86
2020/12/27 11:06:33;;;;;;;0.00;0.00;;;10.70;86.40;;;;;;4975087;28;20045;-86
2020/12/27 11:08:59;;;;;;;0.95;0.00;;;10.80;86.20;;;;;;4992027;28;21166;-85
2020/12/27 11:11:26;;;;;;;0.00;0.00;;;10.70;86.30;;;;;;4975437;28;20551;-87
2020/12/27 11:13:52;;;;;;;0.00;0.00;;;10.70;86.40;;;;;;4992164;28;20042;-86
2020/12/27 11:16:19;;;;;;;0.17;0.10;;;10.70;87.20;;;;;;4991065;28;20311;-84
2020/12/27 11:18:45;;;;;;;0.30;0.20;;;10.70;86.50;;;;;;4993889;28;20041;-83
2020/12/27 11:21:11;;;;;;;0.00;0.00;;;10.70;86.70;;;;;;4993988;28;20034;-84
2020/12/27 11:23:38;;;;;;;0.08;0.08;;;10.70;86.70;;;;;;4993630;28;20034;-85
2020/12/27 11:26:04;;;;;;;0.00;0.00;;;10.70;86.80;;;;;;4992697;28;20039;-86
2020/12/27 11:28:31;;;;;;;0.00;0.00;;;10.70;86.90;;;;;;4993273;28;20337;-85
2020/12/27 11:30:57;;;;;;;0.00;0.00;;;10.70;86.90;;;;;;4988711;28;20034;-85
2020/12/27 11:33:23;;;;;;;0.28;0.28;;;10.70;86.90;;;;;;4996280;28;20030;-86
2020/12/27 11:35:50;;;;;;;0.80;0.43;;;10.80;86.70;;;;;;4991773;28;20084;-85
2020/12/27 11:38:16;;;;;;;0.00;0.00;;;10.80;86.50;;;;;;4995319;28;20094;-85
2020/12/27 11:40:43;;;;;;;0.38;0.38;;;10.90;86.40;;;;;;4975951;28;20047;-88
2020/12/27 11:43:09;;;;;;;1.55;0.20;;;10.90;86.40;;;;;;4984365;28;20038;-87
2020/12/27 11:45:36;;;;;;;0.20;0.10;;;10.90;86.50;;;;;;4994015;28;20038;-90
2020/12/27 11:48:02;;;;;;;0.43;0.20;;;10.90;86.50;;;;;;4995510;28;20053;-87
2020/12/27 11:50:28;;;;;;;0.80;0.03;;;10.90;86.60;;;;;;4995636;28;20034;-87
2020/12/27 11:52:55;;;;;;;0.00;0.00;;;10.90;86.60;;;;;;4997909;28;20039;-87
2020/12/27 11:55:21;;;;;;;0.00;0.00;;;10.90;86.50;;;;;;4997543;28;20043;-86
2020/12/27 11:57:48;;;;;;;0.00;0.00;;;10.90;86.50;;;;;;4995775;28;20041;-87
2020/12/27 12:00:14;;;;;;;0.00;0.00;;;11.00;86.50;;;;;;4995790;28;20038;-87
2020/12/27 12:02:41;;;;;;;0.25;0.00;;;11.00;86.30;;;;;;4990260;28;20031;-87
2020/12/27 12:05:09;;;;;;;0.00;0.00;;;11.00;86.30;;;;;;4997295;28;20053;-87
2020/12/27 12:07:35;;;;;;;0.00;0.00;;;11.10;86.20;;;;;;4979865;28;20337;-86
2020/12/27 12:10:02;;;;;;;0.20;0.03;;;11.10;86.20;;;;;;4996632;28;20038;-86
2020/12/27 12:12:28;;;;;;;0.00;0.00;;;11.10;86.20;;;;;;4994591;28;20038;-86
2020/12/27 12:14:55;;;;;;;0.00;0.00;;;11.10;86.10;;;;;;4996820;28;20037;-87
2020/12/27 12:17:21;;;;;;;0.00;0.00;;;11.10;86.20;;;;;;4995100;28;20038;-87
2020/12/27 12:19:47;;;;;;;0.00;0.00;;;11.10;86.20;;;;;;4996628;28;20041;-87
2020/12/27 12:22:14;;;;;;;1.42;1.13;;;11.10;86.20;;;;;;4996232;28;20043;-85
2020/12/27 12:24:40;;;;;;;0.03;0.03;;;11.10;86.30;;;;;;4996457;28;20037;-85
2020/12/27 12:27:07;;;;;;;0.00;0.00;;;11.10;86.40;;;;;;4993189;28;20046;-86
2020/12/27 12:29:33;;;;;;;0.80;0.10;;;11.10;86.60;;;;;;4989073;28;20038;-87
2020/12/27 12:31:59;;;;;;;0.00;0.00;;;11.00;86.80;;;;;;4978351;28;20049;-88
2020/12/27 12:34:26;;;;;;;0.00;0.00;;;11.00;86.90;;;;;;4995641;28;20039;-87
2020/12/27 12:36:53;;;;;;;0.00;0.00;;;11.00;87.00;;;;;;4982561;28;20320;-83
2020/12/27 12:39:19;;;;;;;0.00;0.00;;;10.90;87.00;;;;;;4995291;28;20030;-85
2020/12/27 12:41:46;;;;;;;0.00;0.00;;;10.90;87.30;;;;;;4994847;28;20030;-85
2020/12/27 12:44:13;;;;;;;0.10;0.03;;;10.80;87.50;;;;;;4995746;28;20045;-87
2020/12/27 12:46:40;;;;;;;0.20;0.03;;;10.70;87.70;;;;;;4992674;28;20504;-85
2020/12/27 12:49:06;;;;;;;0.00;0.00;;;10.50;88.00;;;;;;4990254;28;20046;-84
2020/12/27 12:51:32;;;;;;;0.10;0.08;;;10.30;88.30;;;;;;4990762;28;20045;-85
2020/12/27 12:53:59;;;;;;;0.00;0.00;;;10.20;88.70;;;;;;4995420;28;20540;-84
2020/12/27 12:56:25;;;;;;;0.00;0.00;;;10.00;89.00;;;;;;4978317;28;20030;-84
2020/12/27 12:58:51;;;;;;;0.08;0.00;;;9.90;89.30;;;;;;4992486;28;20041;-86
2020/12/27 13:01:18;;;;;;;0.00;0.00;;;9.80;89.50;;;;;;4993496;28;20456;-86
2020/12/27 13:03:44;;;;;;;0.00;0.00;;;9.80;89.70;;;;;;4985963;28;20426;-84